CDT,Max TemperatureF,Mean TemperatureF,Min TemperatureF,Max Dew PointF,MeanDew PointF,Min DewpointF,Max Humidity, Mean Humidity, Min Humidity, Max Sea Level PressureIn, Mean Sea Level PressureIn, Min Sea Level PressureIn, Max VisibilityMiles, Mean VisibilityMiles, Min VisibilityMiles, Max Wind SpeedMPH, Mean Wind SpeedMPH, Max Gust SpeedMPH,PrecipitationIn, CloudCover, Events, WindDirDegrees
2013-10-1,85,69,52,64,57,50,93,71,48,29.95,29.90,29.84,10,8,0,14,3,18,0.00,0,Fog,175
2013-10-2,86,73,59,69,62,58,97,74,51,30.01,29.95,29.85,10,5,0,18,6,22,0.00,2,Fog,139
2013-10-3,86,75,63,68,64,59,87,71,55,29.91,29.81,29.69,10,9,1,26,13,41,0.69,4,Rain-Thunderstorm,126
2013-10-4,90,75,59,69,65,44,79,62,44,29.94,29.77,29.67,10,9,2,25,15,36,0.35,3,Rain-Thunderstorm,198
2013-10-5,62,55,47,41,35,33,63,49,34,30.05,29.98,29.92,10,10,10,18,10,26,T,4,Rain,273
2013-10-6,63,55,46,44,39,33,86,66,46,30.04,29.94,29.89,10,10,10,23,9,34,0.00,5,,282
2013-10-7,76,58,40,46,40,35,79,53,27,30.17,30.09,30.04,10,10,10,10,5,17,0.00,0,,247
2013-10-8,77,61,45,48,44,42,93,62,31,30.10,30.05,29.99,10,10,10,23,9,30,0.00,0,,168
2013-10-9,79,65,50,50,48,45,83,59,35,30.06,30.02,29.98,10,10,10,18,8,24,0.00,0,,138
2013-10-10,80,66,51,56,51,46,83,61,39,30.04,29.96,29.83,10,10,10,21,9,25,0.00,0,,134
2013-10-11,79,69,59,63,58,46,78,67,56,29.88,29.78,29.72,10,10,10,20,12,29,T,3,Rain,168
2013-10-12,72,59,45,46,41,36,86,57,28,30.28,30.12,29.93,10,10,7,16,5,20,0.00,0,,330
2013-10-13,72,55,38,42,38,34,89,58,26,30.41,30.33,30.28,10,9,2,18,6,24,0.00,0,,81
2013-10-14,69,59,49,61,52,37,90,69,48,30.27,30.00,29.82,10,8,2,28,12,35,0.61,8,Rain-Thunderstorm,141
2013-10-15,62,54,46,60,45,36,77,62,46,30.12,29.99,29.86,10,10,6,20,11,26,0.01,4,Rain,281
2013-10-16,61,52,42,38,37,35,82,61,39,30.14,30.08,30.00,10,10,10,16,7,23,0.00,3,,290
2013-10-17,68,53,37,43,38,31,92,59,26,30.06,29.98,29.91,10,10,7,17,6,22,0.00,0,,278
2013-10-18,45,41,36,37,36,34,92,84,76,30.19,30.14,30.06,10,9,4,12,5,16,0.35,6,Rain,282
2013-10-19,64,48,31,40,34,30,96,63,30,30.12,30.00,29.88,10,10,7,16,4,22,0.00,0,,232
2013-10-20,72,57,42,46,40,37,83,57,31,29.95,29.85,29.78,10,10,9,16,5,21,T,1,,243
2013-10-21,58,49,40,39,34,29,79,57,35,30.16,30.07,29.98,10,10,10,17,7,26,0.00,2,,313
2013-10-22,64,51,38,43,38,33,83,61,39,30.14,30.00,29.94,10,10,10,26,9,36,0.00,2,,297
2013-10-23,55,44,32,37,34,29,92,69,46,30.21,30.14,30.05,10,10,9,12,4,16,T,3,Rain,230
2013-10-24,52,41,30,36,30,24,85,60,35,30.46,30.37,30.22,10,10,8,16,5,22,0.00,2,,339
2013-10-25,59,44,28,33,27,24,92,60,28,30.49,30.39,30.15,10,8,0,18,6,24,0.00,0,Fog,178
2013-10-26,63,48,33,41,34,30,92,62,32,30.21,30.16,30.09,10,10,10,17,6,21,0.00,0,,313
2013-10-27,66,47,27,34,29,24,92,59,26,30.19,30.07,29.94,10,8,0,17,4,22,0.00,0,Fog,175
2013-10-28,63,50,36,50,42,32,89,76,63,30.14,30.09,29.99,10,10,5,14,7,18,T,1,,113
2013-10-29,66,60,54,64,56,50,93,88,83,30.08,30.00,29.91,9,4,2,17,8,22,0.95,8,Rain-Thunderstorm,99
2013-10-30,74,65,55,66,61,53,97,85,73,29.96,29.81,29.72,10,4,0,20,7,26,1.35,8,Fog-Rain-Thunderstorm,225
2013-10-31,61,51,41,53,47,40,96,76,55,29.71,29.66,29.57,10,7,2,15,6,19,0.52,6,Rain,326